Terminal Aerodrome Forecast
Issued by NWS New Orleans/Baton Rouge, LA

Home | Current Version | Previous Version | Text Only | Print | Product List | Glossary On
Versions: 1 2 3 4 5 6 7 8 9 10 11 12 13
000
FTUS44 KLIX 291132
TAFNEW
TAF
KNEW 291132Z 2912/3012 32012KT P6SM SKC
     FM292200 35015KT P6SM SKC
     FM300300 36018KT P6SM SKC=

USA.gov is the U.S. government's official web portal to all federal, state and local government web resources and services.